createdAt,value
2023-01-02T00:00:50.661Z,0.00
2023-01-02T00:01:50.611Z,0.00
2023-01-02T00:02:50.737Z,0.00
2023-01-02T00:03:50.846Z,0.00
2023-01-02T00:04:50.702Z,0.00
2023-01-02T00:05:51.081Z,0.00
2023-01-02T00:07:50.789Z,0.00
2023-01-02T00:09:50.855Z,0.00
2023-01-02T00:11:51.295Z,0.00
2023-01-02T00:12:50.935Z,0.00
2023-01-02T00:13:50.989Z,0.00
2023-01-02T00:14:51.005Z,0.00
2023-01-02T00:15:51.096Z,0.00
2023-01-02T00:16:51.057Z,0.00
2023-01-02T00:17:51.095Z,0.00
2023-01-02T00:18:51.558Z,0.00
2023-01-02T00:19:51.147Z,0.00
2023-01-02T00:20:51.203Z,0.00
2023-01-02T00:21:51.212Z,0.00
2023-01-02T00:22:51.245Z,0.00
2023-01-02T00:23:51.285Z,0.00
2023-01-02T00:24:51.323Z,0.00
2023-01-02T00:25:51.632Z,0.00
2023-01-02T00:26:51.361Z,0.00
2023-01-02T00:27:51.393Z,0.00
2023-01-02T00:28:51.418Z,0.00
2023-01-02T00:29:51.474Z,0.00
2023-01-02T00:30:51.484Z,0.00
2023-01-02T00:32:51.793Z,0.00
2023-01-02T00:34:51.606Z,0.00
2023-01-02T00:35:51.649Z,0.00
2023-01-02T00:36:51.666Z,0.00
2023-01-02T00:37:51.690Z,0.00
2023-01-02T00:38:51.722Z,0.00
2023-01-02T00:39:52.050Z,0.00
2023-01-02T00:40:51.789Z,0.00
2023-01-02T00:41:51.828Z,0.00
2023-01-02T00:42:51.844Z,0.00
2023-01-02T00:43:51.876Z,0.00
2023-01-02T00:44:51.907Z,0.00
2023-01-02T00:46:52.403Z,0.00
2023-01-02T00:47:51.991Z,0.00
2023-01-02T00:48:52.021Z,0.00
2023-01-02T00:49:52.056Z,0.00
2023-01-02T00:50:52.087Z,0.00
2023-01-02T00:51:52.117Z,0.00
2023-01-02T00:52:52.177Z,0.00
2023-01-02T00:53:52.471Z,0.00
2023-01-02T00:54:52.207Z,0.00
2023-01-02T00:55:52.331Z,0.00
2023-01-02T00:56:52.270Z,0.00
2023-01-02T00:57:52.393Z,0.00
2023-01-02T00:58:52.329Z,0.00
2023-01-02T00:59:52.358Z,0.00
2023-01-02T01:00:52.723Z,0.00
2023-01-02T01:01:52.586Z,0.00
2023-01-02T01:02:52.569Z,0.00
2023-01-02T01:03:52.486Z,0.00
2023-01-02T01:04:52.509Z,0.00
2023-01-02T01:05:52.540Z,0.00
2023-01-02T01:06:52.568Z,0.00
2023-01-02T01:07:52.999Z,0.00
2023-01-02T01:08:52.625Z,0.00
2023-01-02T01:09:52.656Z,0.00
2023-01-02T01:11:52.723Z,0.00
2023-01-02T01:12:52.750Z,0.00
2023-01-02T01:13:52.804Z,0.00
2023-01-02T01:14:53.177Z,0.00
2023-01-02T01:15:52.962Z,0.00
2023-01-02T01:16:52.890Z,0.00
2023-01-02T01:17:52.903Z,0.00
2023-01-02T01:18:52.982Z,0.00
2023-01-02T01:19:52.980Z,0.00
2023-01-02T01:20:53.287Z,0.00
2023-01-02T01:21:53.021Z,0.00
2023-01-02T01:22:53.071Z,0.00
2023-01-02T01:23:53.082Z,0.00
2023-01-02T01:24:53.171Z,0.00
2023-01-02T01:25:53.140Z,0.00
2023-01-02T01:26:53.475Z,0.00
2023-01-02T01:27:53.218Z,0.00
2023-01-02T01:28:53.356Z,0.00
2023-01-02T01:29:53.258Z,0.00
2023-01-02T01:30:53.398Z,0.00
2023-01-02T01:31:53.371Z,0.00
2023-01-02T01:32:53.611Z,0.00
2023-01-02T01:33:53.480Z,0.00
2023-01-02T01:34:53.432Z,0.00
2023-01-02T01:35:53.444Z,0.00
2023-01-02T01:36:53.523Z,0.00
2023-01-02T01:37:53.503Z,0.00
2023-01-02T01:38:53.532Z,0.00
2023-01-02T01:39:56.499Z,0.00
2023-01-02T01:40:53.589Z,0.00
2023-01-02T01:41:53.630Z,0.00
2023-01-02T01:42:59.038Z,0.00
2023-01-02T01:43:53.687Z,0.00
2023-01-02T01:44:53.722Z,0.00
2023-01-02T01:45:53.896Z,0.00
2023-01-02T01:46:54.072Z,0.00
2023-01-02T01:47:53.848Z,0.00
2023-01-02T01:48:53.844Z,0.00
2023-01-02T01:49:53.864Z,0.00
2023-01-02T01:50:53.938Z,0.00
2023-01-02T01:51:53.934Z,0.00
2023-01-02T01:52:53.957Z,0.00
2023-01-02T01:53:54.241Z,0.00
2023-01-02T01:54:54.017Z,0.00
2023-01-02T01:55:54.054Z,0.00
2023-01-02T01:56:54.079Z,0.00
2023-01-02T01:57:54.110Z,0.00
2023-01-02T01:58:54.136Z,0.00
2023-01-02T01:59:54.170Z,0.00
2023-01-02T02:00:54.554Z,0.00
2023-01-02T02:01:54.486Z,0.00
2023-01-02T02:02:54.463Z,0.00
2023-01-02T02:03:54.302Z,0.00
2023-01-02T02:04:54.317Z,0.00
2023-01-02T02:05:54.387Z,0.00
2023-01-02T02:06:54.412Z,0.00
2023-01-02T02:07:54.705Z,0.00
2023-01-02T02:08:54.450Z,0.00
2023-01-02T02:09:54.471Z,0.00
2023-01-02T02:10:54.496Z,0.00
2023-01-02T02:11:54.528Z,0.00
2023-01-02T02:12:54.620Z,0.00
2023-01-02T02:13:54.590Z,0.00
2023-01-02T02:14:54.935Z,0.00
2023-01-02T02:15:54.651Z,0.00
2023-01-02T02:16:54.730Z,0.00
2023-01-02T02:17:54.715Z,0.00
2023-01-02T02:18:54.841Z,0.00
2023-01-02T02:19:54.774Z,0.00
2023-01-02T02:20:54.800Z,0.00
2023-01-02T02:21:55.156Z,0.00
2023-01-02T02:22:54.882Z,0.00
2023-01-02T02:23:54.894Z,0.00
2023-01-02T02:24:55.021Z,0.00
2023-01-02T02:25:54.965Z,0.00
2023-01-02T02:26:54.989Z,0.00
2023-01-02T02:27:55.019Z,0.00
2023-01-02T02:28:55.302Z,0.00
2023-01-02T02:29:55.076Z,0.00
2023-01-02T02:30:55.104Z,0.00
2023-01-02T02:31:55.215Z,0.00
2023-01-02T02:32:55.168Z,0.00
2023-01-02T02:33:55.195Z,0.00
2023-01-02T02:34:55.234Z,0.00
2023-01-02T02:35:55.504Z,0.00
2023-01-02T02:36:55.290Z,0.00
2023-01-02T02:37:55.330Z,0.00
2023-01-02T02:38:55.369Z,0.00
2023-01-02T02:39:55.377Z,0.00
2023-01-02T02:40:55.421Z,0.00
2023-01-02T02:41:55.438Z,0.00
2023-01-02T02:42:55.724Z,0.00
2023-01-02T02:43:55.501Z,0.00
2023-01-02T02:44:55.528Z,0.00
2023-01-02T02:45:55.611Z,0.00
2023-01-02T02:46:55.586Z,0.00
2023-01-02T02:47:55.620Z,0.00
2023-01-02T02:48:55.652Z,0.00
2023-01-02T02:49:55.990Z,0.00
2023-01-02T02:50:55.711Z,0.00
2023-01-02T02:51:55.740Z,0.00
2023-01-02T02:52:55.766Z,0.00
2023-01-02T02:53:55.801Z,0.00
2023-01-02T02:54:55.956Z,0.00
2023-01-02T02:55:55.858Z,0.00
2023-01-02T02:56:56.189Z,0.00
2023-01-02T02:57:55.920Z,0.00
2023-01-02T02:58:55.957Z,0.00
2023-01-02T03:00:56.146Z,0.00
2023-01-02T03:01:56.147Z,0.00
2023-01-02T03:02:56.215Z,0.00
2023-01-02T03:03:56.356Z,0.00
2023-01-02T03:04:56.146Z,0.00
2023-01-02T03:05:56.166Z,0.00
2023-01-02T03:06:56.296Z,0.00
2023-01-02T03:07:56.228Z,0.00
2023-01-02T03:09:56.289Z,0.00
2023-01-02T03:10:56.589Z,0.00
2023-01-02T03:11:56.645Z,0.00
2023-01-02T03:13:56.411Z,0.00
2023-01-02T03:14:56.445Z,0.00
2023-01-02T03:15:56.471Z,0.00
2023-01-02T03:17:56.830Z,0.00
2023-01-02T03:18:56.559Z,0.00
2023-01-02T03:19:56.587Z,0.00
2023-01-02T03:20:56.620Z,0.00
2023-01-02T03:21:56.654Z,0.00
2023-01-02T03:22:56.683Z,0.00
2023-01-02T03:23:56.961Z,0.00
2023-01-02T03:25:56.770Z,0.00
2023-01-02T03:26:56.831Z,0.00
2023-01-02T03:27:56.829Z,0.00
2023-01-02T03:28:56.861Z,0.00
2023-01-02T03:29:57.243Z,0.00
2023-01-02T03:30:56.961Z,0.00
2023-01-02T03:31:56.951Z,0.00
2023-01-02T03:32:56.994Z,0.00
2023-01-02T03:33:57.027Z,0.00
2023-01-02T03:34:57.147Z,0.00
2023-01-02T03:35:57.396Z,0.00
2023-01-02T03:36:57.108Z,0.00
2023-01-02T03:37:57.231Z,0.00
2023-01-02T03:38:57.168Z,0.00
2023-01-02T03:39:57.191Z,0.00
2023-01-02T03:40:57.247Z,0.00
2023-01-02T03:41:57.258Z,0.00
2023-01-02T03:42:57.634Z,0.00
2023-01-02T03:43:57.492Z,0.00
2023-01-02T03:44:57.348Z,0.00
2023-01-02T03:45:57.461Z,0.00
2023-01-02T03:46:57.405Z,0.00
2023-01-02T03:47:57.436Z,0.00
2023-01-02T03:48:57.475Z,0.00
2023-01-02T03:49:57.747Z,0.00
2023-01-02T03:50:57.529Z,0.00
2023-01-02T03:51:57.573Z,0.00
2023-01-02T03:52:57.720Z,0.00
2023-01-02T03:53:57.617Z,0.00
2023-01-02T03:54:57.648Z,0.00
2023-01-02T03:55:57.679Z,0.00
2023-01-02T03:56:58.021Z,0.00
2023-01-02T03:57:57.811Z,0.00
2023-01-02T03:58:57.888Z,0.00
2023-01-02T03:59:57.802Z,0.00
2023-01-02T04:00:57.925Z,0.00
2023-01-02T04:01:57.938Z,0.00
2023-01-02T04:02:57.911Z,0.00
2023-01-02T04:03:58.222Z,0.00
2023-01-02T04:04:58.051Z,0.00
2023-01-02T04:05:57.981Z,0.00
2023-01-02T04:06:58.022Z,0.00
2023-01-02T04:07:58.059Z,0.00
2023-01-02T04:08:58.076Z,0.00
2023-01-02T04:09:58.116Z,0.00
2023-01-02T04:10:58.872Z,0.00
2023-01-02T04:11:58.170Z,0.00
2023-01-02T04:12:58.191Z,0.00
2023-01-02T04:13:58.222Z,0.00
2023-01-02T04:14:58.272Z,0.00
2023-01-02T04:15:58.317Z,0.00
2023-01-02T04:16:58.374Z,0.00
2023-01-02T04:17:58.601Z,0.00
2023-01-02T04:18:58.410Z,0.00
2023-01-02T04:19:58.411Z,0.00
2023-01-02T04:20:58.436Z,0.00
2023-01-02T04:21:58.470Z,0.00
2023-01-02T04:22:58.495Z,0.00
2023-01-02T04:23:58.528Z,0.00
2023-01-02T04:24:58.879Z,0.00
2023-01-02T04:25:58.599Z,0.00
2023-01-02T04:26:58.622Z,0.00
2023-01-02T04:27:58.655Z,0.00
2023-01-02T04:28:58.676Z,0.00
2023-01-02T04:29:58.710Z,0.00
2023-01-02T04:30:58.784Z,0.00
2023-01-02T04:31:59.086Z,0.00
2023-01-02T04:32:58.802Z,0.00
2023-01-02T04:33:58.829Z,0.00
2023-01-02T04:34:58.868Z,0.00
2023-01-02T04:35:58.942Z,0.00
2023-01-02T04:36:58.919Z,0.00
2023-01-02T04:37:58.955Z,0.00
2023-01-02T04:38:59.241Z,0.00
2023-01-02T04:39:59.113Z,0.00
2023-01-02T04:40:59.041Z,0.00
2023-01-02T04:41:59.072Z,0.00
2023-01-02T04:42:59.104Z,0.00
2023-01-02T04:43:59.131Z,0.00
2023-01-02T04:44:59.166Z,0.00
2023-01-02T04:45:59.500Z,0.00
2023-01-02T04:46:59.240Z,0.00
2023-01-02T04:47:59.256Z,0.00
2023-01-02T04:48:59.283Z,0.00
2023-01-02T04:49:59.315Z,0.00
2023-01-02T04:50:59.343Z,0.00
2023-01-02T04:51:59.373Z,0.00
2023-01-02T04:52:59.708Z,0.00
2023-01-02T04:53:59.446Z,0.00
2023-01-02T04:54:59.470Z,0.00
2023-01-02T04:55:59.503Z,0.00
2023-01-02T04:56:59.525Z,0.00
2023-01-02T04:57:59.561Z,0.00
2023-01-02T04:58:59.894Z,0.00
2023-01-02T04:59:59.615Z,0.00
2023-01-02T05:00:59.647Z,0.00
2023-01-02T05:01:59.792Z,0.00
2023-01-02T05:02:59.729Z,0.00
2023-01-02T05:03:59.757Z,0.00
2023-01-02T05:06:00.101Z,0.00
2023-01-02T05:06:59.844Z,0.00
2023-01-02T05:07:59.872Z,0.00
2023-01-02T05:08:59.897Z,0.00
2023-01-02T05:10:59.954Z,0.00
2023-01-02T05:12:00.282Z,0.00
2023-01-02T05:13:00.039Z,0.00
2023-01-02T05:14:06.982Z,0.00
2023-01-02T05:15:00.126Z,0.00
2023-01-02T05:17:00.134Z,0.00
2023-01-02T05:18:00.415Z,0.00
2023-01-02T05:19:00.324Z,0.00
2023-01-02T05:20:00.342Z,0.00
2023-01-02T05:22:00.293Z,0.00
2023-01-02T05:23:00.323Z,0.00
2023-01-02T05:25:00.977Z,0.00
2023-01-02T05:26:00.406Z,0.00
2023-01-02T05:27:00.435Z,0.00
2023-01-02T05:28:00.464Z,0.00
2023-01-02T05:29:00.512Z,0.00
2023-01-02T05:30:00.544Z,0.00
2023-01-02T05:31:00.653Z,0.00
2023-01-02T05:32:00.891Z,0.00
2023-01-02T05:33:00.644Z,0.00
2023-01-02T05:34:00.656Z,0.00
2023-01-02T05:35:00.711Z,0.00
2023-01-02T05:36:00.707Z,0.00
2023-01-02T05:37:00.751Z,0.00
2023-01-02T05:38:00.804Z,0.00
2023-01-02T05:39:01.104Z,0.00
2023-01-02T05:40:00.864Z,0.00
2023-01-02T05:41:00.863Z,0.00
2023-01-02T05:42:00.897Z,0.00
2023-01-02T05:43:00.946Z,0.00
2023-01-02T05:44:00.959Z,0.00
2023-01-02T05:45:00.995Z,0.00
2023-01-02T05:46:01.313Z,0.00
2023-01-02T05:47:01.048Z,0.00
2023-01-02T05:48:01.077Z,0.00
2023-01-02T05:49:01.110Z,0.00
2023-01-02T05:51:01.301Z,0.00
2023-01-02T05:52:01.195Z,0.00
2023-01-02T05:53:01.472Z,0.00
2023-01-02T05:54:01.283Z,0.00
2023-01-02T05:55:01.283Z,0.00
2023-01-02T05:56:01.311Z,0.00
2023-01-02T05:58:01.378Z,0.00
2023-01-02T05:59:01.407Z,0.00
2023-01-02T06:00:01.839Z,0.00
2023-01-02T06:01:01.468Z,0.00
2023-01-02T06:02:01.647Z,0.00
2023-01-02T06:03:01.683Z,0.00
2023-01-02T06:04:01.599Z,0.00
2023-01-02T06:05:01.676Z,0.00
2023-01-02T06:08:02.004Z,0.00
2023-01-02T06:09:01.717Z,0.00
2023-01-02T06:10:01.766Z,0.00
2023-01-02T06:11:01.776Z,0.00
2023-01-02T06:12:01.799Z,0.00
2023-01-02T06:13:01.830Z,0.00
2023-01-02T06:14:01.863Z,0.00
2023-01-02T06:15:02.149Z,0.00
2023-01-02T06:16:01.967Z,0.00
2023-01-02T06:18:01.992Z,0.00
2023-01-02T06:19:02.018Z,0.00
2023-01-02T06:20:02.058Z,0.00
2023-01-02T06:21:02.077Z,0.00
2023-01-02T06:22:02.359Z,0.00
2023-01-02T06:23:02.163Z,0.00
2023-01-02T06:24:02.286Z,0.00
2023-01-02T06:25:02.206Z,0.00
2023-01-02T06:26:02.225Z,0.00
2023-01-02T06:27:02.257Z,0.00
2023-01-02T06:28:02.311Z,0.00
2023-01-02T06:29:02.606Z,0.00
2023-01-02T06:30:02.348Z,0.00
2023-01-02T06:31:02.375Z,0.00
2023-01-02T06:33:02.439Z,0.00
2023-01-02T06:34:02.471Z,0.00
2023-01-02T06:35:02.498Z,0.00
2023-01-02T06:36:02.531Z,0.00
2023-01-02T06:37:09.241Z,0.00
2023-01-02T06:38:02.596Z,0.00
2023-01-02T06:39:02.620Z,0.00
2023-01-02T06:40:02.694Z,0.00
2023-01-02T06:41:02.726Z,0.00
2023-01-02T06:42:02.739Z,0.00
2023-01-02T06:44:02.778Z,0.00
2023-01-02T06:46:03.062Z,0.00
2023-01-02T06:47:02.863Z,0.00
2023-01-02T06:48:02.889Z,0.00
2023-01-02T06:49:03.022Z,0.00
2023-01-02T06:50:02.950Z,0.00
2023-01-02T06:52:03.013Z,0.00
2023-01-02T06:53:03.043Z,0.00
2023-01-02T06:54:03.327Z,0.00
2023-01-02T06:55:03.118Z,0.00
2023-01-02T06:56:03.262Z,0.00
2023-01-02T06:57:03.171Z,0.00
2023-01-02T06:58:09.227Z,0.00
2023-01-02T06:59:03.274Z,0.00
2023-01-02T07:00:03.515Z,0.00
2023-01-02T07:01:03.323Z,0.00
2023-01-02T07:02:03.439Z,0.00
2023-01-02T07:03:03.406Z,0.00
2023-01-02T07:04:03.379Z,0.00
2023-01-02T07:05:03.405Z,0.00
2023-01-02T07:06:03.442Z,0.00
2023-01-02T07:07:03.470Z,0.00
2023-01-02T07:08:05.047Z,0.00
2023-01-02T07:09:03.532Z,0.00
2023-01-02T07:10:03.562Z,0.00
2023-01-02T07:11:03.592Z,0.00
2023-01-02T07:12:03.647Z,0.00
2023-01-02T07:13:03.658Z,0.00
2023-01-02T07:14:03.691Z,0.00
2023-01-02T07:15:03.805Z,0.00
2023-01-02T07:16:03.869Z,0.00
2023-01-02T07:17:03.796Z,4.00
2023-01-02T07:18:03.808Z,4.00
2023-01-02T07:19:03.831Z,4.00
2023-01-02T07:20:03.943Z,4.00
2023-01-02T07:21:03.952Z,4.00
2023-01-02T07:22:03.930Z,4.00
2023-01-02T07:23:03.951Z,4.00
2023-01-02T07:24:03.995Z,8.00
2023-01-02T07:25:04.032Z,8.00
2023-01-02T07:26:04.045Z,8.00
2023-01-02T07:27:04.077Z,12.00
2023-01-02T07:28:04.613Z,8.00
2023-01-02T07:29:04.183Z,12.00
2023-01-02T07:30:04.168Z,12.00
2023-01-02T07:31:04.193Z,16.00
2023-01-02T07:32:04.240Z,16.00
2023-01-02T07:33:04.259Z,16.00
2023-01-02T07:34:04.393Z,12.00
2023-01-02T07:35:04.375Z,12.00
2023-01-02T07:36:04.360Z,16.00
2023-01-02T07:37:04.382Z,20.00
2023-01-02T07:39:04.491Z,12.00
2023-01-02T07:40:04.468Z,12.00
2023-01-02T07:41:04.508Z,12.00
2023-01-02T07:43:04.970Z,16.00
2023-01-02T07:44:04.610Z,16.00
2023-01-02T07:45:04.619Z,24.00
2023-01-02T07:46:04.735Z,32.00
2023-01-02T07:47:04.713Z,40.00
2023-01-02T07:48:04.709Z,36.00
2023-01-02T07:49:04.749Z,36.00
2023-01-02T07:50:05.202Z,40.00
2023-01-02T07:52:04.837Z,40.00
2023-01-02T07:53:04.903Z,40.00
2023-01-02T07:54:04.889Z,44.00
2023-01-02T07:55:04.929Z,44.00
2023-01-02T07:56:05.532Z,48.00
2023-01-02T07:57:05.037Z,56.00
2023-01-02T07:58:05.017Z,64.00
2023-01-02T07:59:05.093Z,64.00
2023-01-02T08:02:05.552Z,76.00
2023-01-02T08:03:05.161Z,84.00
2023-01-02T08:04:05.284Z,84.00
2023-01-02T08:05:05.226Z,96.00
2023-01-02T08:06:05.267Z,96.00
2023-01-02T08:07:05.286Z,92.00
2023-01-02T08:08:05.312Z,84.00
2023-01-02T08:09:05.650Z,80.00
2023-01-02T08:10:05.374Z,80.00
2023-01-02T08:11:05.424Z,92.00
2023-01-02T08:12:05.434Z,100.00
2023-01-02T08:13:05.466Z,112.00
2023-01-02T08:14:05.507Z,116.00
2023-01-02T08:15:05.788Z,136.00
2023-01-02T08:16:05.643Z,144.00
2023-01-02T08:17:05.611Z,160.00
2023-01-02T08:18:05.638Z,172.00
2023-01-02T08:19:05.651Z,188.00
2023-01-02T08:20:08.313Z,192.00
2023-01-02T08:21:05.716Z,196.00
2023-01-02T08:22:05.748Z,204.00
2023-01-02T08:23:05.771Z,208.00
2023-01-02T08:24:05.816Z,212.00
2023-01-02T08:25:05.848Z,212.00
2023-01-02T08:26:05.884Z,208.00
2023-01-02T08:27:05.895Z,212.00
2023-01-02T08:28:05.925Z,196.00
2023-01-02T08:29:05.955Z,180.00
2023-01-02T08:30:06.004Z,188.00
2023-01-02T08:31:06.071Z,212.00
2023-01-02T08:32:06.041Z,228.00
2023-01-02T08:33:06.069Z,232.00
2023-01-02T08:34:06.126Z,216.00
2023-01-02T08:35:06.138Z,264.00
2023-01-02T08:36:06.182Z,280.00
2023-01-02T08:37:06.240Z,288.00
2023-01-02T08:38:06.221Z,324.00
2023-01-02T08:40:06.286Z,368.00
2023-01-02T08:41:06.329Z,384.00
2023-01-02T08:42:06.347Z,392.00
2023-01-02T08:43:06.378Z,388.00
2023-01-02T08:44:06.407Z,380.00
2023-01-02T08:46:06.867Z,304.00
2023-01-02T08:47:06.495Z,256.00
2023-01-02T08:48:21.037Z,292.00
2023-01-02T08:49:06.553Z,296.00
2023-01-02T08:50:06.612Z,344.00
2023-01-02T08:51:06.627Z,384.00
2023-01-02T08:52:06.644Z,484.00
2023-01-02T08:53:12.633Z,468.00
2023-01-02T08:54:06.744Z,460.00
2023-01-02T08:55:06.735Z,568.00
2023-01-02T08:56:06.775Z,648.00
2023-01-02T08:57:06.793Z,724.00
2023-01-02T08:58:06.932Z,756.00
2023-01-02T08:59:07.629Z,828.00
2023-01-02T09:01:07.275Z,844.00
2023-01-02T09:02:07.073Z,848.00
2023-01-02T09:03:07.042Z,888.00
2023-01-02T09:04:11.927Z,936.00
2023-01-02T09:05:07.038Z,868.00
2023-01-02T09:06:07.273Z,872.00
2023-01-02T09:07:07.098Z,824.00
2023-01-02T09:08:07.382Z,876.00
2023-01-02T09:09:11.584Z,700.00
2023-01-02T09:10:07.193Z,624.00
2023-01-02T09:11:07.220Z,680.00
2023-01-02T09:12:07.249Z,600.00
2023-01-02T09:13:07.280Z,556.00
2023-01-02T09:14:07.341Z,752.00
2023-01-02T09:15:07.740Z,748.00
2023-01-02T09:16:07.437Z,784.00
2023-01-02T09:17:07.405Z,916.00
2023-01-02T09:18:07.436Z,952.00
2023-01-02T09:19:07.466Z,952.00
2023-01-02T09:20:07.492Z,972.00
2023-01-02T09:21:07.536Z,968.00
2023-01-02T09:22:07.830Z,940.00
2023-01-02T09:23:07.599Z,900.00
2023-01-02T09:24:07.717Z,912.00
2023-01-02T09:25:07.644Z,948.00
2023-01-02T09:26:07.670Z,988.00
2023-01-02T09:27:07.729Z,1052.00
2023-01-02T09:28:07.729Z,1128.00
2023-01-02T09:29:07.763Z,1204.00
2023-01-02T09:30:07.797Z,1272.00
2023-01-02T09:32:07.861Z,1316.00
2023-01-02T09:34:08.216Z,1280.00
2023-01-02T09:35:07.948Z,1140.00
2023-01-02T09:36:07.971Z,820.00
2023-01-02T09:37:10.117Z,632.00
2023-01-02T09:38:08.162Z,576.00
2023-01-02T09:39:08.063Z,628.00
2023-01-02T09:40:08.345Z,632.00
2023-01-02T09:41:08.123Z,504.00
2023-01-02T09:42:08.154Z,572.00
2023-01-02T09:43:08.188Z,744.00
2023-01-02T09:44:08.280Z,916.00
2023-01-02T09:45:09.130Z,772.00
2023-01-02T09:46:08.320Z,692.00
2023-01-02T09:47:08.304Z,1072.00
2023-01-02T09:48:08.328Z,896.00
2023-01-02T09:49:08.362Z,1012.00
2023-01-02T09:50:08.392Z,924.00
2023-01-02T09:51:08.448Z,848.00
2023-01-02T09:52:08.457Z,744.00
2023-01-02T09:53:08.733Z,816.00
2023-01-02T09:54:08.543Z,856.00
2023-01-02T09:55:08.559Z,864.00
2023-01-02T09:56:08.575Z,868.00
2023-01-02T09:57:08.604Z,892.00
2023-01-02T09:58:08.629Z,840.00
2023-01-02T10:00:08.724Z,912.00
2023-01-02T10:01:08.722Z,852.00
2023-01-02T10:02:08.750Z,752.00
2023-01-02T10:03:08.935Z,760.00
2023-01-02T10:04:08.853Z,860.00
2023-01-02T10:05:08.849Z,836.00
2023-01-02T10:06:08.867Z,764.00
2023-01-02T10:07:08.901Z,796.00
2023-01-02T10:08:08.935Z,828.00
2023-01-02T10:09:08.976Z,744.00
2023-01-02T10:10:09.021Z,764.00
2023-01-02T10:11:09.032Z,716.00
2023-01-02T10:12:09.352Z,708.00
2023-01-02T10:13:09.082Z,704.00
2023-01-02T10:15:09.144Z,728.00
2023-01-02T10:16:09.177Z,784.00
2023-01-02T10:17:09.201Z,864.00
2023-01-02T10:18:09.491Z,872.00
2023-01-02T10:19:09.262Z,892.00
2023-01-02T10:20:09.299Z,816.00
2023-01-02T10:21:09.319Z,832.00
2023-01-02T10:22:09.347Z,812.00
2023-01-02T10:23:09.385Z,928.00
2023-01-02T10:24:09.412Z,716.00
2023-01-02T10:25:09.440Z,684.00
2023-01-02T10:26:09.505Z,768.00
2023-01-02T10:27:09.516Z,800.00
2023-01-02T10:28:09.534Z,756.00
2023-01-02T10:29:09.566Z,824.00
2023-01-02T10:30:09.857Z,892.00
2023-01-02T10:32:09.651Z,832.00
2023-01-02T10:33:09.680Z,876.00
2023-01-02T10:34:09.724Z,984.00
2023-01-02T10:35:09.740Z,1032.00
2023-01-02T10:36:09.768Z,1080.00
2023-01-02T10:37:10.048Z,1044.00
2023-01-02T10:38:09.829Z,1004.00
2023-01-02T10:39:09.856Z,1104.00
2023-01-02T10:40:09.897Z,1180.00
2023-01-02T10:41:09.917Z,1200.00
2023-01-02T10:42:09.970Z,1184.00
2023-01-02T10:43:09.982Z,1300.00
2023-01-02T10:44:10.305Z,1432.00
2023-01-02T10:45:10.044Z,1388.00
2023-01-02T10:46:10.142Z,1408.00
2023-01-02T10:47:10.098Z,1528.00
2023-01-02T10:48:10.126Z,1580.00
2023-01-02T10:49:10.257Z,1500.00
2023-01-02T10:50:10.189Z,1416.00
2023-01-02T10:51:10.479Z,1296.00
2023-01-02T10:52:10.253Z,1200.00
2023-01-02T10:53:10.287Z,1168.00
2023-01-02T10:54:10.318Z,1092.00
2023-01-02T10:55:10.343Z,1172.00
2023-01-02T10:56:10.366Z,1380.00
2023-01-02T10:57:10.403Z,1320.00
2023-01-02T10:58:10.800Z,1380.00
2023-01-02T10:59:10.455Z,1160.00
2023-01-02T11:00:10.493Z,936.00
2023-01-02T11:01:10.553Z,848.00
2023-01-02T11:02:10.698Z,936.00
2023-01-02T11:03:10.743Z,884.00
2023-01-02T11:04:10.648Z,920.00
2023-01-02T11:05:10.887Z,1028.00
2023-01-02T11:06:26.187Z,1176.00
2023-01-02T11:07:10.697Z,1360.00
2023-01-02T11:08:10.738Z,1416.00
2023-01-02T11:09:10.760Z,1348.00
2023-01-02T11:10:10.785Z,1316.00
2023-01-02T11:11:10.915Z,1316.00
2023-01-02T11:12:10.952Z,1192.00
2023-01-02T11:13:10.886Z,1192.00
2023-01-02T11:14:10.954Z,1144.00
2023-01-02T11:15:10.937Z,1008.00
2023-01-02T11:16:10.994Z,912.00
2023-01-02T11:17:10.997Z,888.00
2023-01-02T11:18:11.026Z,844.00
2023-01-02T11:19:11.066Z,776.00
2023-01-02T11:20:11.083Z,724.00
2023-01-02T11:21:11.110Z,716.00
2023-01-02T11:22:11.144Z,744.00
2023-01-02T11:23:11.172Z,768.00
2023-01-02T11:24:11.208Z,748.00
2023-01-02T11:25:11.239Z,728.00
2023-01-02T11:26:11.262Z,720.00
2023-01-02T11:27:11.296Z,712.00
2023-01-02T11:28:11.332Z,660.00
2023-01-02T11:29:11.373Z,620.00
2023-01-02T11:30:11.727Z,608.00
2023-01-02T11:31:11.515Z,592.00
2023-01-02T11:32:11.605Z,708.00
2023-01-02T11:33:11.575Z,896.00
2023-01-02T11:34:11.507Z,1048.00
2023-01-02T11:35:11.531Z,1144.00
2023-01-02T11:36:11.588Z,1260.00
2023-01-02T11:37:11.596Z,1424.00
2023-01-02T11:38:11.638Z,1528.00
2023-01-02T11:39:11.651Z,1516.00
2023-01-02T11:40:11.684Z,1432.00
2023-01-02T11:41:11.730Z,1424.00
2023-01-02T11:42:12.095Z,1384.00
2023-01-02T11:43:11.779Z,1316.00
2023-01-02T11:44:17.177Z,1280.00
2023-01-02T11:45:11.839Z,1184.00
2023-01-02T11:46:12.046Z,1136.00
2023-01-02T11:47:11.891Z,1116.00
2023-01-02T11:48:11.923Z,1192.00
2023-01-02T11:49:11.952Z,1380.00
2023-01-02T11:50:11.989Z,1468.00
2023-01-02T11:51:17.374Z,1400.00
2023-01-02T11:52:12.057Z,1388.00
2023-01-02T11:53:12.071Z,1444.00
2023-01-02T11:54:12.130Z,1620.00
2023-01-02T11:55:12.380Z,1648.00
2023-01-02T11:56:12.173Z,1504.00
2023-01-02T11:57:18.433Z,1356.00
2023-01-02T11:58:12.230Z,1236.00
2023-01-02T11:59:12.252Z,1168.00
2023-01-02T12:00:12.298Z,1192.00
2023-01-02T12:01:12.350Z,1240.00
2023-01-02T12:02:12.890Z,1240.00
2023-01-02T12:03:16.730Z,1228.00
2023-01-02T12:04:12.416Z,1196.00
2023-01-02T12:05:12.434Z,1196.00
2023-01-02T12:06:12.476Z,1276.00
2023-01-02T12:07:12.544Z,1368.00
2023-01-02T12:09:12.857Z,1744.00
2023-01-02T12:10:12.580Z,1888.00
2023-01-02T12:11:12.618Z,1828.00
2023-01-02T12:12:12.873Z,1624.00
2023-01-02T12:13:12.668Z,1520.00
2023-01-02T12:15:12.736Z,1644.00
2023-01-02T12:16:13.147Z,1700.00
2023-01-02T12:17:13.553Z,1672.00
2023-01-02T12:18:12.838Z,1584.00
2023-01-02T12:19:12.951Z,1484.00
2023-01-02T12:20:12.880Z,1520.00
2023-01-02T12:21:12.911Z,1624.00
2023-01-02T12:22:13.257Z,1844.00
2023-01-02T12:24:13.011Z,1988.00
2023-01-02T12:26:13.164Z,1412.00
2023-01-02T12:27:13.084Z,1216.00
2023-01-02T12:28:13.192Z,1220.00
2023-01-02T12:29:13.148Z,1268.00
2023-01-02T12:30:13.191Z,1328.00
2023-01-02T12:31:13.215Z,1408.00
2023-01-02T12:32:13.417Z,1452.00
2023-01-02T12:33:13.270Z,1524.00
2023-01-02T12:34:13.356Z,1576.00
2023-01-02T12:35:13.326Z,1620.00
2023-01-02T12:36:13.365Z,1700.00
2023-01-02T12:37:13.388Z,1832.00
2023-01-02T12:38:15.936Z,2028.00
2023-01-02T12:39:13.444Z,2148.00
2023-01-02T12:41:13.807Z,1868.00
2023-01-02T12:42:13.557Z,1916.00
2023-01-02T12:43:13.571Z,2164.00
2023-01-02T12:44:13.602Z,2316.00
2023-01-02T12:45:13.724Z,2184.00
2023-01-02T12:46:13.694Z,1888.00
2023-01-02T12:47:13.687Z,1652.00
2023-01-02T12:48:13.715Z,1432.00
2023-01-02T12:49:13.752Z,1292.00
2023-01-02T12:50:13.794Z,1216.00
2023-01-02T12:51:13.812Z,1384.00
2023-01-02T12:52:13.841Z,1544.00
2023-01-02T12:53:13.873Z,1552.00
2023-01-02T12:54:19.715Z,1656.00
2023-01-02T12:55:13.932Z,1880.00
2023-01-02T12:56:13.955Z,1892.00
2023-01-02T12:57:20.102Z,1712.00
2023-01-02T12:58:14.015Z,1480.00
2023-01-02T12:59:14.065Z,1308.00
2023-01-02T13:01:14.487Z,1220.00
2023-01-02T13:02:14.286Z,1140.00
2023-01-02T13:04:14.205Z,944.00
2023-01-02T13:06:45.086Z,932.00
2023-01-02T13:07:14.293Z,992.00
2023-01-02T13:08:14.637Z,864.00
2023-01-02T13:09:20.096Z,732.00
2023-01-02T13:10:14.429Z,680.00
2023-01-02T13:11:14.411Z,644.00
2023-01-02T13:12:14.466Z,564.00
2023-01-02T13:13:14.473Z,592.00
2023-01-02T13:14:14.493Z,748.00
2023-01-02T13:15:14.547Z,864.00
2023-01-02T13:16:24.563Z,732.00
2023-01-02T13:17:14.641Z,608.00
2023-01-02T13:18:14.613Z,544.00
2023-01-02T13:19:14.644Z,512.00
2023-01-02T13:20:14.674Z,432.00
2023-01-02T13:21:15.100Z,460.00
2023-01-02T13:22:14.762Z,520.00
2023-01-02T13:23:14.765Z,520.00
2023-01-02T13:24:14.815Z,588.00
2023-01-02T13:25:14.821Z,600.00
2023-01-02T13:26:14.867Z,544.00
2023-01-02T13:27:15.135Z,672.00
2023-01-02T13:28:14.911Z,664.00
2023-01-02T13:29:14.946Z,648.00
2023-01-02T13:30:19.952Z,628.00
2023-01-02T13:32:15.086Z,780.00
2023-01-02T13:33:15.364Z,756.00
2023-01-02T13:34:15.099Z,676.00
2023-01-02T13:35:15.146Z,636.00
2023-01-02T13:36:17.499Z,656.00
2023-01-02T13:37:15.186Z,692.00
2023-01-02T13:38:15.243Z,756.00
2023-01-02T13:39:15.487Z,768.00
2023-01-02T13:40:15.271Z,748.00
2023-01-02T13:41:15.295Z,732.00